sensor_id;sensor_type;location;lat;lon;timestamp;P1;durP1;ratioP1;P2;durP2;ratioP2
48665;SDS011;34452;50.796;4.994;2023-02-01T00:01:29;34.50;;;15.93;;
48665;SDS011;34452;50.796;4.994;2023-02-01T00:03:54;44.28;;;15.43;;
48665;SDS011;34452;50.796;4.994;2023-02-01T00:06:20;48.92;;;14.82;;
48665;SDS011;34452;50.796;4.994;2023-02-01T00:08:46;47.35;;;16.73;;
48665;SDS011;34452;50.796;4.994;2023-02-01T00:11:12;39.93;;;16.03;;
48665;SDS011;34452;50.796;4.994;2023-02-01T00:13:38;32.33;;;15.27;;
48665;SDS011;34452;50.796;4.994;2023-02-01T00:16:06;38.92;;;16.42;;
48665;SDS011;34452;50.796;4.994;2023-02-01T00:18:34;40.10;;;15.68;;
48665;SDS011;34452;50.796;4.994;2023-02-01T00:21:00;46.80;;;16.45;;
48665;SDS011;34452;50.796;4.994;2023-02-01T00:23:26;35.42;;;14.20;;
48665;SDS011;34452;50.796;4.994;2023-02-01T00:25:52;38.95;;;15.13;;
48665;SDS011;34452;50.796;4.994;2023-02-01T00:28:18;33.63;;;15.13;;
48665;SDS011;34452;50.796;4.994;2023-02-01T00:30:43;38.97;;;15.20;;
48665;SDS011;34452;50.796;4.994;2023-02-01T00:33:09;36.38;;;15.55;;
48665;SDS011;34452;50.796;4.994;2023-02-01T00:35:35;38.60;;;15.40;;
48665;SDS011;34452;50.796;4.994;2023-02-01T00:38:01;47.03;;;14.63;;
48665;SDS011;34452;50.796;4.994;2023-02-01T00:40:26;36.08;;;13.77;;
48665;SDS011;34452;50.796;4.994;2023-02-01T00:42:52;35.20;;;14.27;;
48665;SDS011;34452;50.796;4.994;2023-02-01T00:45:18;32.25;;;12.90;;
48665;SDS011;34452;50.796;4.994;2023-02-01T00:47:44;37.55;;;13.70;;
48665;SDS011;34452;50.796;4.994;2023-02-01T00:50:10;30.20;;;12.97;;
48665;SDS011;34452;50.796;4.994;2023-02-01T00:52:36;35.60;;;13.15;;
48665;SDS011;34452;50.796;4.994;2023-02-01T00:55:02;38.17;;;13.48;;
48665;SDS011;34452;50.796;4.994;2023-02-01T00:57:27;39.25;;;13.05;;
48665;SDS011;34452;50.796;4.994;2023-02-01T00:59:53;40.67;;;13.40;;
48665;SDS011;34452;50.796;4.994;2023-02-01T01:02:19;28.33;;;12.23;;
48665;SDS011;34452;50.796;4.994;2023-02-01T01:04:44;45.88;;;13.23;;
48665;SDS011;34452;50.796;4.994;2023-02-01T01:07:10;34.87;;;11.87;;
48665;SDS011;34452;50.796;4.994;2023-02-01T01:09:36;29.87;;;11.93;;
48665;SDS011;34452;50.796;4.994;2023-02-01T01:12:01;41.63;;;12.87;;
48665;SDS011;34452;50.796;4.994;2023-02-01T01:14:29;28.27;;;11.73;;
48665;SDS011;34452;50.796;4.994;2023-02-01T01:16:55;34.58;;;12.07;;
48665;SDS011;34452;50.796;4.994;2023-02-01T01:19:21;35.83;;;11.95;;
48665;SDS011;34452;50.796;4.994;2023-02-01T01:21:46;38.95;;;12.68;;
48665;SDS011;34452;50.796;4.994;2023-02-01T01:24:12;40.80;;;12.95;;
48665;SDS011;34452;50.796;4.994;2023-02-01T01:26:38;43.45;;;12.43;;
48665;SDS011;34452;50.796;4.994;2023-02-01T01:29:03;40.97;;;11.33;;
48665;SDS011;34452;50.796;4.994;2023-02-01T01:31:29;35.43;;;10.97;;
48665;SDS011;34452;50.796;4.994;2023-02-01T01:33:56;45.40;;;11.90;;
48665;SDS011;34452;50.796;4.994;2023-02-01T01:36:24;41.35;;;11.02;;
48665;SDS011;34452;50.796;4.994;2023-02-01T01:38:51;35.47;;;9.70;;
48665;SDS011;34452;50.796;4.994;2023-02-01T01:41:18;29.23;;;9.02;;
48665;SDS011;34452;50.796;4.994;2023-02-01T01:46:15;27.23;;;8.00;;
48665;SDS011;34452;50.796;4.994;2023-02-01T01:48:42;20.83;;;7.47;;
48665;SDS011;34452;50.796;4.994;2023-02-01T01:51:09;31.58;;;6.70;;
48665;SDS011;34452;50.796;4.994;2023-02-01T01:53:38;28.98;;;7.45;;
48665;SDS011;34452;50.796;4.994;2023-02-01T01:56:10;23.80;;;6.50;;
48665;SDS011;34452;50.796;4.994;2023-02-01T01:58:37;27.08;;;6.32;;
48665;SDS011;34452;50.796;4.994;2023-02-01T02:01:03;33.10;;;7.03;;
48665;SDS011;34452;50.796;4.994;2023-02-01T02:03:31;19.05;;;6.10;;
48665;SDS011;34452;50.796;4.994;2023-02-01T02:06:03;25.88;;;6.32;;
48665;SDS011;34452;50.796;4.994;2023-02-01T02:08:38;36.20;;;7.40;;
48665;SDS011;34452;50.796;4.994;2023-02-01T02:11:04;22.53;;;5.93;;
48665;SDS011;34452;50.796;4.994;2023-02-01T02:13:32;28.50;;;5.73;;
48665;SDS011;34452;50.796;4.994;2023-02-01T02:16:16;33.13;;;6.55;;
48665;SDS011;34452;50.796;4.994;2023-02-01T02:18:56;33.60;;;6.18;;
48665;SDS011;34452;50.796;4.994;2023-02-01T02:27:21;23.83;;;5.43;;
48665;SDS011;34452;50.796;4.994;2023-02-01T02:38:17;21.25;;;4.28;;
48665;SDS011;34452;50.796;4.994;2023-02-01T02:44:08;20.67;;;4.47;;
48665;SDS011;34452;50.796;4.994;2023-02-01T02:47:15;21.55;;;4.57;;
48665;SDS011;34452;50.796;4.994;2023-02-01T02:49:52;22.20;;;5.80;;
48665;SDS011;34452;50.796;4.994;2023-02-01T02:52:45;23.65;;;4.25;;
48665;SDS011;34452;50.796;4.994;2023-02-01T02:55:36;20.50;;;3.83;;
48665;SDS011;34452;50.796;4.994;2023-02-01T02:58:05;20.50;;;3.35;;
48665;SDS011;34452;50.796;4.994;2023-02-01T03:00:50;23.20;;;4.13;;
48665;SDS011;34452;50.796;4.994;2023-02-01T03:03:37;25.17;;;4.43;;
48665;SDS011;34452;50.796;4.994;2023-02-01T03:06:22;17.02;;;3.20;;
48665;SDS011;34452;50.796;4.994;2023-02-01T03:08:49;16.17;;;3.20;;
48665;SDS011;34452;50.796;4.994;2023-02-01T03:11:19;23.85;;;3.88;;
48665;SDS011;34452;50.796;4.994;2023-02-01T03:13:46;27.13;;;3.70;;
48665;SDS011;34452;50.796;4.994;2023-02-01T03:16:18;23.77;;;3.60;;
48665;SDS011;34452;50.796;4.994;2023-02-01T03:21:50;29.75;;;5.45;;
48665;SDS011;34452;50.796;4.994;2023-02-01T03:24:31;22.00;;;3.88;;
48665;SDS011;34452;50.796;4.994;2023-02-01T03:27:12;30.38;;;3.65;;
48665;SDS011;34452;50.796;4.994;2023-02-01T03:32:43;15.68;;;3.35;;
48665;SDS011;34452;50.796;4.994;2023-02-01T03:35:32;18.33;;;3.40;;
48665;SDS011;34452;50.796;4.994;2023-02-01T03:41:08;22.08;;;3.85;;
48665;SDS011;34452;50.796;4.994;2023-02-01T03:43:42;21.40;;;3.38;;
48665;SDS011;34452;50.796;4.994;2023-02-01T03:46:32;23.25;;;4.68;;
48665;SDS011;34452;50.796;4.994;2023-02-01T03:49:06;22.00;;;3.72;;
48665;SDS011;34452;50.796;4.994;2023-02-01T03:51:35;26.70;;;4.10;;
48665;SDS011;34452;50.796;4.994;2023-02-01T03:54:05;21.90;;;3.85;;
48665;SDS011;34452;50.796;4.994;2023-02-01T03:56:35;30.52;;;3.88;;
48665;SDS011;34452;50.796;4.994;2023-02-01T03:59:03;26.08;;;3.60;;
48665;SDS011;34452;50.796;4.994;2023-02-01T04:01:29;22.75;;;4.25;;
48665;SDS011;34452;50.796;4.994;2023-02-01T04:03:56;17.17;;;3.85;;
48665;SDS011;34452;50.796;4.994;2023-02-01T04:06:22;28.38;;;3.75;;
48665;SDS011;34452;50.796;4.994;2023-02-01T04:08:49;22.70;;;3.40;;
48665;SDS011;34452;50.796;4.994;2023-02-01T04:13:41;21.15;;;3.45;;
48665;SDS011;34452;50.796;4.994;2023-02-01T04:16:07;19.80;;;3.50;;
48665;SDS011;34452;50.796;4.994;2023-02-01T04:18:33;21.58;;;4.03;;
48665;SDS011;34452;50.796;4.994;2023-02-01T04:20:59;22.45;;;3.72;;
48665;SDS011;34452;50.796;4.994;2023-02-01T04:23:26;23.70;;;4.20;;
48665;SDS011;34452;50.796;4.994;2023-02-01T04:25:52;24.95;;;4.43;;
48665;SDS011;34452;50.796;4.994;2023-02-01T04:28:19;19.77;;;3.83;;
48665;SDS011;34452;50.796;4.994;2023-02-01T04:30:45;17.07;;;3.67;;
48665;SDS011;34452;50.796;4.994;2023-02-01T04:33:11;17.80;;;3.85;;
48665;SDS011;34452;50.796;4.994;2023-02-01T04:35:39;23.40;;;3.78;;
48665;SDS011;34452;50.796;4.994;2023-02-01T04:40:32;26.67;;;4.32;;
48665;SDS011;34452;50.796;4.994;2023-02-01T04:42:57;22.67;;;4.20;;
48665;SDS011;34452;50.796;4.994;2023-02-01T04:45:23;25.20;;;4.10;;
48665;SDS011;34452;50.796;4.994;2023-02-01T04:47:49;33.60;;;5.43;;
48665;SDS011;34452;50.796;4.994;2023-02-01T04:50:15;30.57;;;4.80;;
48665;SDS011;34452;50.796;4.994;2023-02-01T04:52:41;19.90;;;3.75;;
48665;SDS011;34452;50.796;4.994;2023-02-01T04:55:06;20.77;;;3.50;;
48665;SDS011;34452;50.796;4.994;2023-02-01T04:57:32;18.58;;;4.15;;
48665;SDS011;34452;50.796;4.994;2023-02-01T04:59:58;20.10;;;3.70;;
48665;SDS011;34452;50.796;4.994;2023-02-01T05:02:24;35.67;;;4.18;;
48665;SDS011;34452;50.796;4.994;2023-02-01T05:04:49;18.67;;;3.70;;
48665;SDS011;34452;50.796;4.994;2023-02-01T05:07:15;24.52;;;4.90;;
48665;SDS011;34452;50.796;4.994;2023-02-01T05:09:41;28.20;;;4.55;;
48665;SDS011;34452;50.796;4.994;2023-02-01T05:12:08;22.20;;;4.43;;
48665;SDS011;34452;50.796;4.994;2023-02-01T05:14:53;26.90;;;4.65;;
48665;SDS011;34452;50.796;4.994;2023-02-01T05:17:19;28.30;;;3.70;;
48665;SDS011;34452;50.796;4.994;2023-02-01T05:19:44;30.90;;;5.53;;
48665;SDS011;34452;50.796;4.994;2023-02-01T05:22:10;27.37;;;3.87;;
48665;SDS011;34452;50.796;4.994;2023-02-01T05:24:36;18.20;;;3.97;;
48665;SDS011;34452;50.796;4.994;2023-02-01T05:27:01;27.20;;;3.77;;
48665;SDS011;34452;50.796;4.994;2023-02-01T05:29:27;34.35;;;5.00;;
48665;SDS011;34452;50.796;4.994;2023-02-01T05:31:53;18.02;;;3.40;;
48665;SDS011;34452;50.796;4.994;2023-02-01T05:34:19;23.03;;;4.10;;
48665;SDS011;34452;50.796;4.994;2023-02-01T05:36:44;32.57;;;4.90;;
48665;SDS011;34452;50.796;4.994;2023-02-01T05:39:10;35.17;;;4.47;;
48665;SDS011;34452;50.796;4.994;2023-02-01T05:41:36;22.77;;;4.00;;
48665;SDS011;34452;50.796;4.994;2023-02-01T05:44:02;27.55;;;4.05;;
48665;SDS011;34452;50.796;4.994;2023-02-01T05:46:28;19.13;;;3.42;;
48665;SDS011;34452;50.796;4.994;2023-02-01T05:48:54;23.15;;;4.05;;
48665;SDS011;34452;50.796;4.994;2023-02-01T05:51:19;26.23;;;3.47;;
48665;SDS011;34452;50.796;4.994;2023-02-01T05:53:45;27.48;;;3.75;;
48665;SDS011;34452;50.796;4.994;2023-02-01T05:56:11;29.80;;;4.03;;
48665;SDS011;34452;50.796;4.994;2023-02-01T05:58:36;22.92;;;4.45;;
48665;SDS011;34452;50.796;4.994;2023-02-01T06:01:02;29.92;;;4.72;;
48665;SDS011;34452;50.796;4.994;2023-02-01T06:05:54;26.42;;;3.67;;
48665;SDS011;34452;50.796;4.994;2023-02-01T06:08:20;26.13;;;4.10;;
48665;SDS011;34452;50.796;4.994;2023-02-01T06:10:46;25.05;;;4.60;;
48665;SDS011;34452;50.796;4.994;2023-02-01T06:13:11;22.10;;;3.70;;
48665;SDS011;34452;50.796;4.994;2023-02-01T06:15:37;25.80;;;4.27;;
48665;SDS011;34452;50.796;4.994;2023-02-01T06:18:03;33.30;;;3.93;;
48665;SDS011;34452;50.796;4.994;2023-02-01T06:20:29;23.60;;;3.72;;
48665;SDS011;34452;50.796;4.994;2023-02-01T06:22:55;29.00;;;3.83;;
48665;SDS011;34452;50.796;4.994;2023-02-01T06:25:21;27.00;;;4.25;;
48665;SDS011;34452;50.796;4.994;2023-02-01T06:27:47;21.50;;;3.70;;
48665;SDS011;34452;50.796;4.994;2023-02-01T06:30:13;23.65;;;4.20;;
48665;SDS011;34452;50.796;4.994;2023-02-01T06:32:39;31.45;;;4.38;;
48665;SDS011;34452;50.796;4.994;2023-02-01T06:35:06;35.78;;;5.70;;
48665;SDS011;34452;50.796;4.994;2023-02-01T06:37:36;31.25;;;4.53;;
48665;SDS011;34452;50.796;4.994;2023-02-01T06:40:02;24.80;;;4.45;;
48665;SDS011;34452;50.796;4.994;2023-02-01T06:42:28;19.88;;;3.25;;
48665;SDS011;34452;50.796;4.994;2023-02-01T06:44:54;23.33;;;3.87;;
48665;SDS011;34452;50.796;4.994;2023-02-01T06:47:19;25.17;;;4.47;;
48665;SDS011;34452;50.796;4.994;2023-02-01T06:49:45;23.23;;;4.20;;
48665;SDS011;34452;50.796;4.994;2023-02-01T06:52:11;24.90;;;4.20;;
48665;SDS011;34452;50.796;4.994;2023-02-01T06:54:36;28.20;;;4.17;;
48665;SDS011;34452;50.796;4.994;2023-02-01T06:57:02;29.63;;;3.80;;
48665;SDS011;34452;50.796;4.994;2023-02-01T06:59:28;28.10;;;4.25;;
48665;SDS011;34452;50.796;4.994;2023-02-01T07:01:54;21.65;;;3.83;;
48665;SDS011;34452;50.796;4.994;2023-02-01T07:04:20;17.47;;;4.00;;
48665;SDS011;34452;50.796;4.994;2023-02-01T07:06:46;25.55;;;4.82;;
48665;SDS011;34452;50.796;4.994;2023-02-01T07:09:11;41.17;;;4.97;;
48665;SDS011;34452;50.796;4.994;2023-02-01T07:11:38;24.42;;;3.83;;
48665;SDS011;34452;50.796;4.994;2023-02-01T07:14:08;26.55;;;4.03;;
48665;SDS011;34452;50.796;4.994;2023-02-01T07:16:34;26.65;;;4.38;;
48665;SDS011;34452;50.796;4.994;2023-02-01T07:19:00;39.88;;;4.68;;
48665;SDS011;34452;50.796;4.994;2023-02-01T07:21:26;21.90;;;3.85;;
48665;SDS011;34452;50.796;4.994;2023-02-01T07:23:53;27.13;;;4.45;;
48665;SDS011;34452;50.796;4.994;2023-02-01T07:28:44;30.08;;;5.38;;
48665;SDS011;34452;50.796;4.994;2023-02-01T07:31:12;32.20;;;4.75;;
48665;SDS011;34452;50.796;4.994;2023-02-01T07:33:43;29.95;;;3.97;;
48665;SDS011;34452;50.796;4.994;2023-02-01T07:36:11;31.92;;;5.20;;
48665;SDS011;34452;50.796;4.994;2023-02-01T07:38:39;30.48;;;3.78;;
48665;SDS011;34452;50.796;4.994;2023-02-01T07:41:05;26.70;;;4.55;;
48665;SDS011;34452;50.796;4.994;2023-02-01T07:43:32;21.77;;;4.78;;
48665;SDS011;34452;50.796;4.994;2023-02-01T07:45:59;26.63;;;4.68;;
48665;SDS011;34452;50.796;4.994;2023-02-01T07:48:25;31.08;;;4.53;;
48665;SDS011;34452;50.796;4.994;2023-02-01T07:51:03;25.05;;;4.43;;
48665;SDS011;34452;50.796;4.994;2023-02-01T07:53:31;28.98;;;3.90;;
48665;SDS011;34452;50.796;4.994;2023-02-01T07:55:58;22.95;;;4.15;;
48665;SDS011;34452;50.796;4.994;2023-02-01T07:58:24;31.48;;;4.57;;
48665;SDS011;34452;50.796;4.994;2023-02-01T08:00:51;22.05;;;4.40;;
48665;SDS011;34452;50.796;4.994;2023-02-01T08:03:35;36.80;;;5.40;;
48665;SDS011;34452;50.796;4.994;2023-02-01T08:06:01;39.20;;;4.63;;
48665;SDS011;34452;50.796;4.994;2023-02-01T08:08:27;36.08;;;4.95;;
48665;SDS011;34452;50.796;4.994;2023-02-01T08:13:38;23.05;;;4.53;;
48665;SDS011;34452;50.796;4.994;2023-02-01T08:16:04;18.23;;;4.03;;
48665;SDS011;34452;50.796;4.994;2023-02-01T08:18:32;24.83;;;3.75;;
48665;SDS011;34452;50.796;4.994;2023-02-01T08:21:02;32.88;;;5.07;;
48665;SDS011;34452;50.796;4.994;2023-02-01T08:23:29;34.30;;;6.43;;
48665;SDS011;34452;50.796;4.994;2023-02-01T08:26:03;29.50;;;4.80;;
48665;SDS011;34452;50.796;4.994;2023-02-01T08:28:48;35.53;;;4.50;;
48665;SDS011;34452;50.796;4.994;2023-02-01T08:31:16;30.10;;;4.47;;
48665;SDS011;34452;50.796;4.994;2023-02-01T08:33:47;27.02;;;5.25;;
48665;SDS011;34452;50.796;4.994;2023-02-01T08:36:15;28.85;;;4.63;;
48665;SDS011;34452;50.796;4.994;2023-02-01T08:38:41;26.63;;;5.47;;
48665;SDS011;34452;50.796;4.994;2023-02-01T08:41:07;30.70;;;4.63;;
48665;SDS011;34452;50.796;4.994;2023-02-01T08:43:34;31.88;;;4.90;;
48665;SDS011;34452;50.796;4.994;2023-02-01T08:46:00;33.45;;;5.05;;
48665;SDS011;34452;50.796;4.994;2023-02-01T08:48:26;27.38;;;4.10;;
48665;SDS011;34452;50.796;4.994;2023-02-01T08:50:52;27.70;;;4.37;;
48665;SDS011;34452;50.796;4.994;2023-02-01T08:53:18;21.23;;;4.07;;
48665;SDS011;34452;50.796;4.994;2023-02-01T08:55:45;39.67;;;4.63;;
48665;SDS011;34452;50.796;4.994;2023-02-01T08:58:11;25.75;;;4.38;;
48665;SDS011;34452;50.796;4.994;2023-02-01T09:00:39;33.85;;;5.00;;
48665;SDS011;34452;50.796;4.994;2023-02-01T09:05:30;28.15;;;4.25;;
48665;SDS011;34452;50.796;4.994;2023-02-01T09:07:56;30.10;;;4.63;;
48665;SDS011;34452;50.796;4.994;2023-02-01T09:10:22;29.10;;;4.57;;
48665;SDS011;34452;50.796;4.994;2023-02-01T09:12:48;26.30;;;5.47;;
48665;SDS011;34452;50.796;4.994;2023-02-01T09:15:13;26.47;;;4.83;;
48665;SDS011;34452;50.796;4.994;2023-02-01T09:17:39;25.90;;;4.33;;
48665;SDS011;34452;50.796;4.994;2023-02-01T09:20:06;36.20;;;5.65;;
48665;SDS011;34452;50.796;4.994;2023-02-01T09:22:33;29.70;;;3.63;;
48665;SDS011;34452;50.796;4.994;2023-02-01T09:24:59;17.83;;;3.70;;
48665;SDS011;34452;50.796;4.994;2023-02-01T09:27:25;24.73;;;2.87;;
48665;SDS011;34452;50.796;4.994;2023-02-01T09:29:50;32.17;;;4.72;;
48665;SDS011;34452;50.796;4.994;2023-02-01T09:32:19;30.55;;;4.10;;
48665;SDS011;34452;50.796;4.994;2023-02-01T09:34:45;27.13;;;4.88;;
48665;SDS011;34452;50.796;4.994;2023-02-01T09:37:11;21.08;;;3.95;;
48665;SDS011;34452;50.796;4.994;2023-02-01T09:39:37;31.88;;;4.60;;
48665;SDS011;34452;50.796;4.994;2023-02-01T09:42:26;26.30;;;3.77;;
48665;SDS011;34452;50.796;4.994;2023-02-01T09:45:10;29.10;;;4.72;;
48665;SDS011;34452;50.796;4.994;2023-02-01T09:50:31;28.58;;;3.80;;
48665;SDS011;34452;50.796;4.994;2023-02-01T09:53:05;20.55;;;3.83;;
48665;SDS011;34452;50.796;4.994;2023-02-01T09:55:39;22.40;;;4.55;;
48665;SDS011;34452;50.796;4.994;2023-02-01T10:00:39;27.40;;;4.50;;
48665;SDS011;34452;50.796;4.994;2023-02-01T10:03:11;25.55;;;4.25;;
48665;SDS011;34452;50.796;4.994;2023-02-01T10:08:39;24.98;;;4.22;;
48665;SDS011;34452;50.796;4.994;2023-02-01T10:11:27;24.33;;;4.00;;
48665;SDS011;34452;50.796;4.994;2023-02-01T10:22:02;25.38;;;4.10;;
48665;SDS011;34452;50.796;4.994;2023-02-01T10:30:00;17.92;;;3.15;;
48665;SDS011;34452;50.796;4.994;2023-02-01T10:32:33;21.38;;;3.97;;
48665;SDS011;34452;50.796;4.994;2023-02-01T10:35:00;23.83;;;4.57;;
48665;SDS011;34452;50.796;4.994;2023-02-01T10:37:34;36.15;;;4.32;;
48665;SDS011;34452;50.796;4.994;2023-02-01T10:40:00;29.05;;;4.20;;
48665;SDS011;34452;50.796;4.994;2023-02-01T10:42:41;22.08;;;4.43;;
48665;SDS011;34452;50.796;4.994;2023-02-01T10:45:11;29.25;;;4.13;;
48665;SDS011;34452;50.796;4.994;2023-02-01T10:47:41;19.83;;;4.10;;
48665;SDS011;34452;50.796;4.994;2023-02-01T10:55:28;26.27;;;3.92;;
48665;SDS011;34452;50.796;4.994;2023-02-01T10:57:58;13.82;;;2.92;;
48665;SDS011;34452;50.796;4.994;2023-02-01T11:00:26;27.73;;;3.95;;
48665;SDS011;34452;50.796;4.994;2023-02-01T11:02:53;20.55;;;3.65;;
48665;SDS011;34452;50.796;4.994;2023-02-01T11:05:20;24.80;;;3.92;;
48665;SDS011;34452;50.796;4.994;2023-02-01T11:07:48;25.98;;;3.50;;
48665;SDS011;34452;50.796;4.994;2023-02-01T11:13:03;13.65;;;3.15;;
48665;SDS011;34452;50.796;4.994;2023-02-01T11:17:54;18.63;;;3.72;;
48665;SDS011;34452;50.796;4.994;2023-02-01T11:20:33;18.05;;;3.78;;
48665;SDS011;34452;50.796;4.994;2023-02-01T11:23:05;20.58;;;3.78;;
48665;SDS011;34452;50.796;4.994;2023-02-01T11:25:38;25.63;;;3.92;;
48665;SDS011;34452;50.796;4.994;2023-02-01T11:28:12;16.05;;;3.13;;
48665;SDS011;34452;50.796;4.994;2023-02-01T11:30:40;16.30;;;3.60;;
48665;SDS011;34452;50.796;4.994;2023-02-01T11:33:12;18.75;;;3.53;;
48665;SDS011;34452;50.796;4.994;2023-02-01T11:35:41;20.70;;;3.20;;
48665;SDS011;34452;50.796;4.994;2023-02-01T11:38:20;21.67;;;3.40;;
48665;SDS011;34452;50.796;4.994;2023-02-01T11:40:46;19.23;;;3.45;;
48665;SDS011;34452;50.796;4.994;2023-02-01T11:45:56;15.82;;;2.80;;
48665;SDS011;34452;50.796;4.994;2023-02-01T11:48:24;18.20;;;2.58;;
48665;SDS011;34452;50.796;4.994;2023-02-01T11:53:54;14.65;;;3.00;;
48665;SDS011;34452;50.796;4.994;2023-02-01T11:56:55;26.70;;;4.95;;
48665;SDS011;34452;50.796;4.994;2023-02-01T12:19:58;25.60;;;3.88;;
48665;SDS011;34452;50.796;4.994;2023-02-01T12:25:14;13.43;;;2.72;;
48665;SDS011;34452;50.796;4.994;2023-02-01T12:33:39;17.75;;;2.63;;
48665;SDS011;34452;50.796;4.994;2023-02-01T12:36:21;15.43;;;2.80;;
48665;SDS011;34452;50.796;4.994;2023-02-01T12:44:56;20.30;;;2.90;;
48665;SDS011;34452;50.796;4.994;2023-02-01T12:47:49;20.50;;;2.40;;
48665;SDS011;34452;50.796;4.994;2023-02-01T12:55:41;11.13;;;2.13;;
48665;SDS011;34452;50.796;4.994;2023-02-01T13:00:43;12.05;;;2.17;;
48665;SDS011;34452;50.796;4.994;2023-02-01T13:11:42;16.73;;;2.20;;
48665;SDS011;34452;50.796;4.994;2023-02-01T13:17:01;14.20;;;2.05;;
48665;SDS011;34452;50.796;4.994;2023-02-01T13:25:38;15.85;;;2.53;;
48665;SDS011;34452;50.796;4.994;2023-02-01T13:28:09;19.85;;;2.50;;
48665;SDS011;34452;50.796;4.994;2023-02-01T13:33:49;13.73;;;1.90;;
48665;SDS011;34452;50.796;4.994;2023-02-01T13:39:25;11.60;;;2.15;;
48665;SDS011;34452;50.796;4.994;2023-02-01T13:42:05;18.70;;;2.00;;
48665;SDS011;34452;50.796;4.994;2023-02-01T13:44:38;15.35;;;2.50;;
48665;SDS011;34452;50.796;4.994;2023-02-01T13:49:55;14.55;;;2.35;;
48665;SDS011;34452;50.796;4.994;2023-02-01T13:52:37;19.88;;;3.42;;
48665;SDS011;34452;50.796;4.994;2023-02-01T13:57:51;15.88;;;2.00;;
48665;SDS011;34452;50.796;4.994;2023-02-01T14:00:27;14.23;;;2.80;;
48665;SDS011;34452;50.796;4.994;2023-02-01T14:10:48;16.85;;;2.08;;
48665;SDS011;34452;50.796;4.994;2023-02-01T14:13:27;8.98;;;1.70;;
48665;SDS011;34452;50.796;4.994;2023-02-01T14:23:40;13.07;;;2.75;;
48665;SDS011;34452;50.796;4.994;2023-02-01T14:26:10;16.65;;;3.25;;
48665;SDS011;34452;50.796;4.994;2023-02-01T14:34:55;11.55;;;1.90;;
48665;SDS011;34452;50.796;4.994;2023-02-01T14:37:26;12.75;;;2.58;;
48665;SDS011;34452;50.796;4.994;2023-02-01T14:39:57;9.88;;;1.85;;
48665;SDS011;34452;50.796;4.994;2023-02-01T14:42:42;17.83;;;2.63;;
48665;SDS011;34452;50.796;4.994;2023-02-01T14:58:40;19.85;;;2.38;;
48665;SDS011;34452;50.796;4.994;2023-02-01T15:01:30;13.65;;;2.30;;
48665;SDS011;34452;50.796;4.994;2023-02-01T15:06:44;18.02;;;3.00;;
48665;SDS011;34452;50.796;4.994;2023-02-01T15:17:56;12.57;;;2.33;;
48665;SDS011;34452;50.796;4.994;2023-02-01T15:20:25;18.33;;;2.72;;
48665;SDS011;34452;50.796;4.994;2023-02-01T15:25:44;19.10;;;2.78;;
48665;SDS011;34452;50.796;4.994;2023-02-01T15:28:12;14.70;;;2.78;;
48665;SDS011;34452;50.796;4.994;2023-02-01T15:30:39;12.38;;;2.47;;
48665;SDS011;34452;50.796;4.994;2023-02-01T15:33:17;11.93;;;3.00;;
48665;SDS011;34452;50.796;4.994;2023-02-01T15:38:33;18.20;;;3.40;;
48665;SDS011;34452;50.796;4.994;2023-02-01T15:41:02;17.38;;;3.42;;
48665;SDS011;34452;50.796;4.994;2023-02-01T15:43:49;27.83;;;2.88;;
48665;SDS011;34452;50.796;4.994;2023-02-01T15:46:41;19.33;;;2.92;;
48665;SDS011;34452;50.796;4.994;2023-02-01T15:51:56;15.65;;;2.95;;
48665;SDS011;34452;50.796;4.994;2023-02-01T15:54:26;31.02;;;5.00;;
48665;SDS011;34452;50.796;4.994;2023-02-01T15:56:56;22.88;;;3.40;;
48665;SDS011;34452;50.796;4.994;2023-02-01T15:59:37;15.65;;;2.60;;
48665;SDS011;34452;50.796;4.994;2023-02-01T16:02:24;24.15;;;3.25;;
48665;SDS011;34452;50.796;4.994;2023-02-01T16:04:53;20.90;;;3.63;;
48665;SDS011;34452;50.796;4.994;2023-02-01T16:07:23;19.25;;;3.30;;
48665;SDS011;34452;50.796;4.994;2023-02-01T16:09:54;18.60;;;3.78;;
48665;SDS011;34452;50.796;4.994;2023-02-01T16:12:24;16.20;;;2.85;;
48665;SDS011;34452;50.796;4.994;2023-02-01T16:15:10;16.40;;;2.92;;
48665;SDS011;34452;50.796;4.994;2023-02-01T16:17:36;13.00;;;3.25;;
48665;SDS011;34452;50.796;4.994;2023-02-01T16:20:03;20.90;;;3.25;;
48665;SDS011;34452;50.796;4.994;2023-02-01T16:22:28;17.67;;;2.85;;
48665;SDS011;34452;50.796;4.994;2023-02-01T16:24:54;20.30;;;3.10;;
48665;SDS011;34452;50.796;4.994;2023-02-01T16:27:20;13.90;;;2.72;;
48665;SDS011;34452;50.796;4.994;2023-02-01T16:29:47;21.40;;;2.70;;
48665;SDS011;34452;50.796;4.994;2023-02-01T16:34:58;21.77;;;2.90;;
48665;SDS011;34452;50.796;4.994;2023-02-01T16:37:24;17.95;;;3.05;;
48665;SDS011;34452;50.796;4.994;2023-02-01T16:39:50;13.32;;;2.28;;
48665;SDS011;34452;50.796;4.994;2023-02-01T16:42:16;17.58;;;3.20;;
48665;SDS011;34452;50.796;4.994;2023-02-01T16:44:42;18.60;;;2.95;;
48665;SDS011;34452;50.796;4.994;2023-02-01T16:49:52;21.65;;;3.20;;
48665;SDS011;34452;50.796;4.994;2023-02-01T16:52:19;19.48;;;2.75;;
48665;SDS011;34452;50.796;4.994;2023-02-01T16:54:48;13.32;;;2.75;;
48665;SDS011;34452;50.796;4.994;2023-02-01T16:57:15;23.42;;;3.75;;
48665;SDS011;34452;50.796;4.994;2023-02-01T16:59:42;20.88;;;3.30;;
48665;SDS011;34452;50.796;4.994;2023-02-01T17:02:11;28.45;;;5.85;;
48665;SDS011;34452;50.796;4.994;2023-02-01T17:04:38;9.02;;;2.00;;
48665;SDS011;34452;50.796;4.994;2023-02-01T17:07:04;19.27;;;2.83;;
48665;SDS011;34452;50.796;4.994;2023-02-01T17:09:36;15.25;;;2.78;;
48665;SDS011;34452;50.796;4.994;2023-02-01T17:12:02;16.90;;;3.17;;
48665;SDS011;34452;50.796;4.994;2023-02-01T17:14:29;26.42;;;3.72;;
48665;SDS011;34452;50.796;4.994;2023-02-01T17:16:56;25.52;;;3.42;;
48665;SDS011;34452;50.796;4.994;2023-02-01T17:19:22;13.80;;;2.75;;
48665;SDS011;34452;50.796;4.994;2023-02-01T17:21:49;22.38;;;4.78;;
48665;SDS011;34452;50.796;4.994;2023-02-01T17:24:19;19.45;;;2.70;;
48665;SDS011;34452;50.796;4.994;2023-02-01T17:26:48;20.20;;;2.85;;
48665;SDS011;34452;50.796;4.994;2023-02-01T17:29:15;19.65;;;3.00;;
48665;SDS011;34452;50.796;4.994;2023-02-01T17:31:42;20.55;;;3.90;;
48665;SDS011;34452;50.796;4.994;2023-02-01T17:34:10;18.70;;;3.08;;
48665;SDS011;34452;50.796;4.994;2023-02-01T17:36:38;18.13;;;3.28;;
48665;SDS011;34452;50.796;4.994;2023-02-01T17:39:04;14.90;;;3.15;;
48665;SDS011;34452;50.796;4.994;2023-02-01T17:41:30;17.30;;;2.60;;
48665;SDS011;34452;50.796;4.994;2023-02-01T17:43:56;21.70;;;3.88;;
48665;SDS011;34452;50.796;4.994;2023-02-01T17:46:22;37.35;;;4.28;;
48665;SDS011;34452;50.796;4.994;2023-02-01T17:48:51;20.48;;;4.50;;
48665;SDS011;34452;50.796;4.994;2023-02-01T17:51:19;18.98;;;3.53;;
48665;SDS011;34452;50.796;4.994;2023-02-01T17:53:46;16.50;;;3.22;;
48665;SDS011;34452;50.796;4.994;2023-02-01T17:56:13;23.00;;;3.28;;
48665;SDS011;34452;50.796;4.994;2023-02-01T17:58:41;16.95;;;3.60;;
48665;SDS011;34452;50.796;4.994;2023-02-01T18:01:10;20.80;;;2.83;;
48665;SDS011;34452;50.796;4.994;2023-02-01T18:03:38;16.92;;;3.65;;
48665;SDS011;34452;50.796;4.994;2023-02-01T18:08:31;17.23;;;3.20;;
48665;SDS011;34452;50.796;4.994;2023-02-01T18:13:24;23.15;;;3.20;;
48665;SDS011;34452;50.796;4.994;2023-02-01T18:15:51;22.63;;;2.92;;
48665;SDS011;34452;50.796;4.994;2023-02-01T18:18:17;23.73;;;3.92;;
48665;SDS011;34452;50.796;4.994;2023-02-01T18:20:43;14.68;;;2.65;;
48665;SDS011;34452;50.796;4.994;2023-02-01T18:23:12;18.48;;;3.72;;
48665;SDS011;34452;50.796;4.994;2023-02-01T18:25:40;24.80;;;3.70;;